Kingston, NH

9:08 PM EDT on August 29, 2016 (GMT -0400)
KNHNEWTO7 | | Change Station

Elev 112 ft 42.87 °N, 71.07 °W | Updated 240 days ago

Clear
Clear
67 °F
Feels Like 67 °F
N
6
Wind Variable Wind from WNW
Gusts mph

Today
High -- | Low -- °F
--% Chance of Precip.
Yesterday
High -- | Low -- °F
Precip. -- in
Pressure 30.14 in
Visibility 10.0 miles
Clouds Clear
Dew Point 55 °F
Humidity 64%
Rainfall in
Snow Depth Not available.
6:06 AM 7:23 PM
Waning Crescent, 6% visible
METAR KLWM 300054Z 33004KT 10SM CLR 22/12 A3014 RMK AO2 SLP206 T02220122
Pressure 30.14 in
Visibility 10.0 miles
Clouds Clear
Dew Point 55 °F
Humidity 64%
Rainfall in
Snow Depth Not available.
6:06 AM 7:23 PM
Waning Crescent, 6% visible
METAR KLWM 300054Z 33004KT 10SM CLR 22/12 A3014 RMK AO2 SLP206 T02220122

10-Day Weather Forecast

Almanac

Astronomy

Aug. 29, 2016 Rise Set
Actual Time
Civil Twilight
Nautical Twilight
Astronomical Twilight
Moon
Length of Visible Light
Length of Day
Tomorrow will be .
, % of the Moon is Illuminated

Today's Extremes

State Highs State Lows

Community

WunderPhotos

Upload Photos

1,935,709 photos uploaded!

WunderBlog® & News

Nearby

Air Quality

  Air Quality AQ Index Pollutant
Not available.

Snow Depth

Station Depth Elevation

Earthquake Activity

City Distance Mag. Time & Date
Minimum magnitude displayed is 2.5.

Coastal Water Temperatures

Place Temperature

Stations

Nearby Weather Stations

Station Location Temp. Windchill Dew Point Humidity Wind Precip. Elev Updated Type
                   

Watches & Warnings

There are currently no watches in effect.